Time;durP1;ratioP1;P1;durP2;ratioP2;P2;SDS_P1;SDS_P2;PMS_P1;PMS_P2;Temp;Humidity;BMP_temperature;BMP_pressure;BME280_temperature;BME280_humidity;BME280_pressure;Samples;Min_cycle;Max_cycle;Signal;HPM_P1;HPM_P2
2023/05/04 00:01:38;;;;;;;11.82;7.18;;;;;;;10.36;94.09;94789.09;5053479;28;20210;-75
2023/05/04 00:04:06;;;;;;;9.05;4.93;;;;;;;10.33;94.21;94778.91;5057494;28;20236;-76
2023/05/04 00:06:32;;;;;;;12.48;6.93;;;;;;;10.36;94.32;94777.47;5061065;28;20286;-76
2023/05/04 00:08:59;;;;;;;5.90;3.90;;;;;;;10.36;94.14;94775.56;5057126;28;20526;-75
2023/05/04 00:11:27;;;;;;;8.98;5.93;;;;;;;10.31;94.71;94775.72;5064120;28;20596;-76
2023/05/04 00:13:55;;;;;;;15.25;8.20;;;;;;;10.29;95.52;94778.72;5056958;28;20207;-75
2023/05/04 00:16:21;;;;;;;13.85;7.85;;;;;;;10.27;96.18;94772.84;5054052;28;20206;-75
2023/05/04 00:18:48;;;;;;;10.88;7.28;;;;;;;10.30;96.57;94779.53;5057736;28;20224;-75
2023/05/04 00:21:15;;;;;;;11.85;8.40;;;;;;;10.20;98.02;94788.00;5060927;28;20609;-75
2023/05/04 00:23:42;;;;;;;16.23;9.65;;;;;;;10.19;98.42;94781.00;5058069;28;20717;-75
2023/05/04 00:26:08;;;;;;;17.98;10.23;;;;;;;10.14;98.92;94776.50;5053905;28;20260;-75
2023/05/04 00:28:35;;;;;;;12.65;7.38;;;;;;;10.07;99.46;94786.22;5056651;28;20659;-75
2023/05/04 00:31:03;;;;;;;18.70;9.68;;;;;;;9.95;99.86;94779.56;5060347;28;20300;-75
2023/05/04 00:33:30;;;;;;;13.63;8.07;;;;;;;9.96;100.00;94786.56;5057898;28;20199;-75
2023/05/04 00:35:57;;;;;;;17.92;10.02;;;;;;;9.95;100.00;94790.38;5053772;28;20238;-75
2023/05/04 00:38:23;;;;;;;14.18;9.52;;;;;;;9.99;100.00;94795.94;5056156;28;20207;-75
2023/05/04 00:40:50;;;;;;;22.55;10.55;;;;;;;9.97;100.00;94788.16;5061027;28;20200;-75
2023/05/04 00:43:17;;;;;;;23.35;10.82;;;;;;;10.03;100.00;94786.06;5058370;28;20214;-75
2023/05/04 00:45:44;;;;;;;16.70;9.57;;;;;;;10.01;100.00;94790.19;5053769;28;20272;-75
2023/05/04 00:48:12;;;;;;;17.30;10.30;;;;;;;10.04;100.00;94792.28;5055571;28;20207;-77
2023/05/04 00:50:40;;;;;;;14.90;9.52;;;;;;;10.04;100.00;94797.69;5061322;28;20575;-77
2023/05/04 00:53:10;;;;;;;19.58;12.05;;;;;;;10.07;100.00;94786.22;5061246;28;20256;-76
2023/05/04 00:55:39;;;;;;;10.63;6.20;;;;;;;10.07;100.00;94789.72;5056275;28;20697;-77
2023/05/04 00:58:07;;;;;;;16.77;9.65;;;;;;;10.09;100.00;94784.81;5055939;28;20192;-75
2023/05/04 01:00:34;;;;;;;20.73;10.77;;;;;;;10.07;100.00;94786.22;5054230;28;20211;-76
2023/05/04 01:03:01;;;;;;;16.85;8.77;;;;;;;10.06;100.00;94781.94;5044253;28;20244;-75
2023/05/04 01:05:38;;;;;;;15.32;9.80;;;;;;;10.03;100.00;94774.44;5040536;28;20227;-76
2023/05/04 01:08:09;;;;;;;18.77;10.25;;;;;;;10.05;100.00;94774.94;5040472;28;20207;-75
2023/05/04 01:10:43;;;;;;;14.80;9.02;;;;;;;10.14;100.00;94770.28;5026834;28;20225;-76
2023/05/04 01:13:12;;;;;;;14.40;7.15;;;;;;;10.05;100.00;94769.50;5040269;28;20204;-76
2023/05/04 01:15:40;;;;;;;14.70;8.25;;;;;;;10.02;100.00;94775.56;5036374;28;20294;-76
2023/05/04 01:18:07;;;;;;;16.02;9.90;;;;;;;9.99;100.00;94772.38;5030273;28;20243;-76
2023/05/04 01:20:35;;;;;;;20.92;11.27;;;;;;;10.02;100.00;94778.25;5036989;28;20224;-76
2023/05/04 01:23:04;;;;;;;16.27;9.05;;;;;;;10.04;100.00;94770.63;5033102;28;20544;-76
2023/05/04 01:25:43;;;;;;;22.48;11.43;;;;;;;9.99;100.00;94775.06;5037474;28;20212;-75
2023/05/04 01:28:18;;;;;;;15.27;8.38;;;;;;;10.05;100.00;94766.81;5043837;28;20214;-76
2023/05/04 01:30:48;;;;;;;13.20;8.20;;;;;;;10.08;100.00;94763.47;5030833;28;20243;-76
2023/05/04 01:33:16;;;;;;;14.13;9.15;;;;;;;10.08;100.00;94766.97;5042416;28;20250;-76
2023/05/04 01:35:43;;;;;;;14.98;8.73;;;;;;;10.07;100.00;94759.16;5044004;28;20269;-75
2023/05/04 01:38:11;;;;;;;18.70;10.32;;;;;;;10.03;100.00;94763.63;5030186;28;20269;-74
2023/05/04 01:40:38;;;;;;;15.80;8.60;;;;;;;10.02;100.00;94756.63;5031989;28;20713;-76
2023/05/04 01:43:05;;;;;;;15.18;9.85;;;;;;;9.99;100.00;94753.44;5041828;28;20871;-76
2023/05/04 01:45:31;;;;;;;12.52;7.38;;;;;;;9.95;100.00;94744.38;5043577;28;20208;-75
2023/05/04 01:47:58;;;;;;;15.43;9.35;;;;;;;10.04;100.00;94748.97;5030452;28;20201;-75
2023/05/04 01:50:25;;;;;;;14.77;7.82;;;;;;;10.02;100.00;94746.59;5041616;28;20251;-76
2023/05/04 01:52:52;;;;;;;12.50;8.07;;;;;;;10.01;100.00;94744.19;5040681;28;20207;-76
2023/05/04 01:55:20;;;;;;;22.30;12.35;;;;;;;9.99;100.00;94742.59;5036456;28;20609;-76
2023/05/04 01:57:47;;;;;;;22.63;11.95;;;;;;;10.05;100.00;94734.31;5039648;28;20212;-76
2023/05/04 02:00:15;;;;;;;15.43;8.93;;;;;;;10.03;100.00;94741.97;5033382;28;20265;-76
2023/05/04 02:02:42;;;;;;;11.85;7.20;;;;;;;10.08;99.42;94744.53;5038799;28;20239;-76
2023/05/04 02:05:09;;;;;;;21.92;12.85;;;;;;;10.10;99.29;94747.72;5043022;28;20207;-75
2023/05/04 02:07:36;;;;;;;15.07;7.78;;;;;;;10.06;97.50;94752.16;5029692;28;20212;-75
2023/05/04 02:10:03;;;;;;;14.52;8.35;;;;;;;10.06;97.60;94735.91;5042953;28;20553;-75
2023/05/04 02:12:31;;;;;;;13.93;7.75;;;;;;;10.05;96.54;94739.75;5040607;28;20318;-75
2023/05/04 02:14:58;;;;;;;8.88;4.72;;;;;;;10.01;96.31;94749.59;5036002;28;20203;-75
2023/05/04 02:17:25;;;;;;;11.90;7.10;;;;;;;10.03;96.69;94740.06;5037783;28;20224;-75
2023/05/04 02:19:51;;;;;;;13.82;7.95;;;;;;;9.97;95.54;94750.28;5042736;28;20676;-74
2023/05/04 02:22:18;;;;;;;11.60;6.60;;;;;;;9.98;94.97;94749.13;5041333;28;20196;-75
2023/05/04 02:24:45;;;;;;;9.20;5.57;;;;;;;9.99;94.41;94753.44;5036095;28;20199;-75
2023/05/04 02:27:12;;;;;;;5.70;4.30;;;;;;;9.96;93.76;94751.38;5049399;28;20215;-75
2023/05/04 02:29:40;;;;;;;10.93;6.47;;;;;;;10.02;92.99;94745.78;5036329;28;20258;-76
2023/05/04 02:32:07;;;;;;;7.40;4.57;;;;;;;10.07;92.41;94748.34;5037119;28;20297;-75
2023/05/04 02:34:34;;;;;;;8.70;5.28;;;;;;;10.02;92.24;94752.00;5041814;28;20196;-76
2023/05/04 02:37:01;;;;;;;7.88;5.18;;;;;;;9.99;92.48;94753.44;5042095;28;20227;-75
2023/05/04 02:39:28;;;;;;;6.38;3.65;;;;;;;10.03;92.34;94748.19;5036287;28;20581;-76
2023/05/04 02:41:54;;;;;;;9.45;6.15;;;;;;;10.01;93.14;94744.19;5033603;28;20250;-75
2023/05/04 02:44:21;;;;;;;10.00;5.28;;;;;;;9.90;93.64;94755.34;5029956;28;20674;-75
2023/05/04 02:46:49;;;;;;;9.85;5.45;;;;;;;9.79;94.49;94759.50;5028851;28;20204;-75
2023/05/04 02:49:16;;;;;;;9.18;5.22;;;;;;;9.69;96.28;94754.44;5029477;28;20303;-75
2023/05/04 02:51:43;;;;;;;11.93;6.93;;;;;;;9.55;97.26;94742.97;5028508;28;20223;-75
2023/05/04 02:54:09;;;;;;;15.02;6.53;;;;;;;9.47;97.74;94757.25;5026838;28;20525;-75
2023/05/04 02:56:36;;;;;;;7.53;4.43;;;;;;;9.48;98.56;94753.44;5028844;28;20672;-76
2023/05/04 02:59:03;;;;;;;6.68;4.10;;;;;;;9.49;99.15;94746.94;5029210;28;20212;-75
2023/05/04 03:01:30;;;;;;;9.07;4.78;;;;;;;9.47;98.18;94749.16;5025935;28;20197;-75
2023/05/04 03:03:58;;;;;;;13.10;7.18;;;;;;;9.46;98.88;94751.06;5044786;28;20293;-75
2023/05/04 03:06:25;;;;;;;8.23;5.38;;;;;;;9.45;98.30;94754.06;5049630;28;20612;-75
2023/05/04 03:08:51;;;;;;;5.85;4.53;;;;;;;9.49;97.06;94760.44;5050119;28;20202;-75
2023/05/04 03:11:18;;;;;;;9.70;5.70;;;;;;;9.53;96.53;94756.00;5047944;28;20227;-75
2023/05/04 03:13:45;;;;;;;8.60;5.00;;;;;;;9.50;96.42;94749.31;5057362;28;20816;-74
2023/05/04 03:16:12;;;;;;;6.78;4.03;;;;;;;9.50;96.51;94762.03;5052214;28;20199;-75
2023/05/04 03:18:38;;;;;;;6.10;4.13;;;;;;;9.47;96.42;94763.47;5057765;28;20230;-75
2023/05/04 03:21:06;;;;;;;9.00;4.35;;;;;;;9.47;96.27;94751.84;5054444;28;20203;-75
2023/05/04 03:23:33;;;;;;;5.78;3.40;;;;;;;9.41;96.76;94758.53;5068637;28;20207;-74
2023/05/04 03:26:00;;;;;;;8.63;4.47;;;;;;;9.40;97.90;94759.66;5053724;28;20195;-74
2023/05/04 03:28:27;;;;;;;5.88;3.47;;;;;;;9.28;100.00;94768.41;5058462;28;20249;-75
2023/05/04 03:30:54;;;;;;;7.75;4.72;;;;;;;9.08;100.00;94767.06;5061928;28;20210;-75
2023/05/04 03:33:21;;;;;;;9.88;5.35;;;;;;;8.97;100.00;94763.06;5058400;28;20268;-76
2023/05/04 03:35:47;;;;;;;5.65;3.40;;;;;;;8.86;100.00;94770.66;5061989;28;20257;-76
2023/05/04 03:38:15;;;;;;;10.95;5.32;;;;;;;8.85;100.00;94774.47;5051340;28;20214;-75
2023/05/04 03:40:42;;;;;;;6.95;4.13;;;;;;;8.80;100.00;94781.91;5049809;28;20278;-76
2023/05/04 03:43:09;;;;;;;5.00;2.85;;;;;;;8.73;100.00;94795.09;5054100;28;20207;-76
2023/05/04 03:45:36;;;;;;;10.68;4.90;;;;;;;8.70;100.00;94798.41;5057045;28;20203;-76
2023/05/04 03:48:04;;;;;;;7.03;3.92;;;;;;;8.69;100.00;94807.59;5045095;28;20199;-77
2023/05/04 03:50:31;;;;;;;7.38;4.85;;;;;;;8.61;100.00;94794.88;5048000;28;20201;-76
2023/05/04 03:53:02;;;;;;;7.35;4.53;;;;;;;8.61;100.00;94811.06;5058880;28;20303;-75
2023/05/04 03:55:30;;;;;;;10.45;5.78;;;;;;;8.63;100.00;94798.84;5054502;28;20206;-76
2023/05/04 03:57:57;;;;;;;8.23;4.13;;;;;;;8.66;100.00;94802.81;5049687;28;20184;-77
2023/05/04 04:00:23;;;;;;;11.13;6.65;;;;;;;8.64;100.00;94815.84;5051316;28;20200;-77
2023/05/04 04:02:50;;;;;;;13.45;6.50;;;;;;;8.64;100.00;94805.03;5054651;28;20227;-76
2023/05/04 04:05:17;;;;;;;5.75;4.28;;;;;;;8.64;100.00;94810.44;5056221;28;21106;-77
2023/05/04 04:07:44;;;;;;;8.20;5.00;;;;;;;8.67;100.00;94812.53;5056373;28;20204;-79
2023/05/04 04:10:11;;;;;;;6.20;3.78;;;;;;;8.72;100.00;94807.00;5048548;28;20207;-76
2023/05/04 04:12:40;;;;;;;8.65;4.43;;;;;;;8.72;100.00;94815.91;5059805;28;20740;-76
2023/05/04 04:15:07;;;;;;;8.70;5.22;;;;;;;8.78;100.00;94811.13;5030271;28;20647;-74
2023/05/04 04:17:34;;;;;;;12.50;6.88;;;;;;;8.80;100.00;94814.31;5044579;28;20224;-77
2023/05/04 04:20:01;;;;;;;12.55;7.07;;;;;;;8.78;100.00;94811.13;5059635;28;20279;-74
2023/05/04 04:22:28;;;;;;;6.35;3.80;;;;;;;8.71;100.00;94818.91;5060020;28;20199;-74
2023/05/04 04:24:55;;;;;;;10.18;5.75;;;;;;;8.70;100.00;94811.91;5054309;28;20203;-75
2023/05/04 04:27:21;;;;;;;8.30;4.63;;;;;;;8.76;100.00;94808.75;5053499;28;20257;-76
2023/05/04 04:29:50;;;;;;;5.88;3.45;;;;;;;8.68;100.00;94816.81;5059844;28;20246;-75
2023/05/04 04:32:16;;;;;;;12.15;5.60;;;;;;;8.75;100.00;94817.94;5047708;28;20733;-77
2023/05/04 04:34:43;;;;;;;10.48;5.75;;;;;;;8.80;100.00;94825.13;5058075;28;20241;-76
2023/05/04 04:37:10;;;;;;;7.85;4.72;;;;;;;8.80;100.00;94819.72;5053741;28;20207;-76
2023/05/04 04:39:37;;;;;;;8.18;4.57;;;;;;;8.79;100.00;94824.34;5058515;28;20243;-77
2023/05/04 04:42:04;;;;;;;7.10;4.82;;;;;;;8.76;100.00;94832.25;5060455;28;20209;-78
2023/05/04 04:44:31;;;;;;;6.97;4.20;;;;;;;8.76;100.00;94824.16;5055633;28;20207;-77
2023/05/04 04:46:59;;;;;;;5.97;3.42;;;;;;;8.83;100.00;94824.50;5053717;28;20306;-76
2023/05/04 04:49:26;;;;;;;8.32;4.72;;;;;;;8.78;100.00;94819.22;5058200;28;20294;-76
2023/05/04 04:51:53;;;;;;;5.13;3.17;;;;;;;8.88;100.00;94822.44;5049612;28;20337;-76
2023/05/04 04:54:19;;;;;;;7.72;4.55;;;;;;;8.91;100.00;94831.84;5058305;28;20230;-75
2023/05/04 04:56:46;;;;;;;15.07;3.97;;;;;;;8.96;100.00;94830.91;5048023;28;20208;-75
2023/05/04 04:59:13;;;;;;;10.20;5.10;;;;;;;8.95;100.00;94835.53;5059794;28;20656;-75
2023/05/04 05:01:41;;;;;;;7.40;3.97;;;;;;;8.98;100.00;94836.81;5053906;28;20208;-74
2023/05/04 05:04:09;;;;;;;4.15;2.58;;;;;;;9.06;100.00;94830.63;5059046;28;20609;-75
2023/05/04 05:06:36;;;;;;;7.82;2.90;;;;;;;9.05;100.00;94848.75;5056043;28;20341;-74
2023/05/04 05:09:03;;;;;;;6.78;3.95;;;;;;;9.11;100.00;94839.41;5060099;28;20285;-76
2023/05/04 05:11:30;;;;;;;7.57;3.80;;;;;;;9.09;100.00;94844.31;5046719;28;20283;-75
2023/05/04 05:13:58;;;;;;;5.72;3.10;;;;;;;9.12;100.00;94838.31;5059615;28;20207;-76
2023/05/04 05:16:25;;;;;;;4.07;2.47;;;;;;;9.14;100.00;94840.69;5055928;28;21064;-77
2023/05/04 05:18:52;;;;;;;7.88;4.50;;;;;;;9.09;100.00;94855.13;5056952;28;20218;-79
2023/05/04 05:21:20;;;;;;;12.45;6.35;;;;;;;9.06;100.00;94855.75;5064918;28;20251;-78
2023/05/04 05:23:47;;;;;;;10.10;5.38;;;;;;;9.11;100.00;94855.63;5059794;28;20204;-76
2023/05/04 05:26:14;;;;;;;9.45;5.63;;;;;;;9.03;100.00;94860.97;5053254;28;20260;-74
2023/05/04 05:28:40;;;;;;;7.32;4.55;;;;;;;9.02;100.00;94843.97;5057054;28;20644;-76
2023/05/04 05:31:07;;;;;;;10.30;6.18;;;;;;;9.03;100.00;94847.47;5052376;28;20203;-76
2023/05/04 05:33:34;;;;;;;10.75;5.85;;;;;;;9.11;100.00;94858.31;5059886;28;20262;-75
2023/05/04 05:36:01;;;;;;;9.20;6.20;;;;;;;9.12;100.00;94859.13;5050251;28;20262;-77
2023/05/04 05:38:30;;;;;;;12.65;6.68;;;;;;;9.10;100.00;94862.13;5061906;28;20234;-79
2023/05/04 05:40:56;;;;;;;8.48;4.35;;;;;;;9.05;100.00;94867.66;5055787;28;20210;-78
2023/05/04 05:43:23;;;;;;;10.75;4.78;;;;;;;9.01;100.00;94874.81;5048651;28;20203;-78
2023/05/04 05:45:50;;;;;;;10.77;5.25;;;;;;;9.02;100.00;94873.69;5048554;28;20203;-77
2023/05/04 05:48:17;;;;;;;14.57;7.50;;;;;;;9.12;100.00;94865.31;5061884;28;20257;-77
2023/05/04 05:50:43;;;;;;;7.95;5.40;;;;;;;9.19;100.00;94871.06;5048913;28;20200;-77
2023/05/04 05:53:10;;;;;;;9.85;4.68;;;;;;;9.23;100.00;94871.25;5048725;28;20244;-75
2023/05/04 05:55:38;;;;;;;14.10;6.55;;;;;;;9.32;100.00;94868.56;5055936;28;20223;-76
2023/05/04 05:58:05;;;;;;;9.10;5.40;;;;;;;9.27;100.00;94872.22;5049137;28;20246;-76
2023/05/04 06:00:35;;;;;;;6.03;3.50;;;;;;;9.25;100.00;94869.03;5048479;28;20279;-76
2023/05/04 06:03:01;;;;;;;10.05;5.10;;;;;;;9.53;100.00;94875.00;5049177;28;20228;-75
2023/05/04 06:05:28;;;;;;;11.90;6.15;;;;;;;9.82;100.00;94882.53;5061810;28;20203;-75
2023/05/04 06:07:55;;;;;;;13.05;6.15;;;;;;;10.15;100.00;94869.31;5062401;28;20210;-76
2023/05/04 06:10:22;;;;;;;12.05;6.28;;;;;;;10.45;100.00;94865.69;5056331;28;20276;-76
2023/05/04 06:12:50;;;;;;;16.85;8.38;;;;;;;10.58;100.00;94872.84;5054748;28;20235;-76
2023/05/04 06:15:17;;;;;;;7.18;4.35;;;;;;;10.57;100.00;94876.66;5055953;28;20215;-75
2023/05/04 06:17:44;;;;;;;6.03;4.03;;;;;;;10.61;100.00;94880.31;5055606;28;20223;-76
2023/05/04 06:20:11;;;;;;;9.52;5.35;;;;;;;10.62;99.18;94876.50;5061681;28;20658;-76
2023/05/04 06:22:38;;;;;;;8.98;5.15;;;;;;;11.18;98.61;94874.59;5062573;28;20203;-76
2023/05/04 06:25:06;;;;;;;10.38;5.00;;;;;;;11.90;96.69;94867.38;5049301;28;20207;-76
2023/05/04 06:27:33;;;;;;;5.45;3.55;;;;;;;11.82;90.37;94879.88;5063037;28;20639;-76
2023/05/04 06:30:01;;;;;;;5.50;2.80;;;;;;;11.86;92.25;94878.09;5057231;28;20580;-75
2023/05/04 06:32:27;;;;;;;5.00;3.00;;;;;;;12.28;88.78;94867.28;5055679;28;20338;-76
2023/05/04 06:34:55;;;;;;;6.95;3.90;;;;;;;11.78;89.85;94887.09;5060564;28;20284;-77
2023/05/04 06:37:22;;;;;;;4.80;3.40;;;;;;;11.70;90.21;94885.19;5062403;28;20675;-77
2023/05/04 06:39:49;;;;;;;5.40;3.45;;;;;;;11.45;89.95;94873.34;5058697;28;20306;-77
2023/05/04 06:42:15;;;;;;;2.90;1.92;;;;;;;11.37;90.88;94893.97;5066288;28;20207;-75
2023/05/04 06:44:42;;;;;;;3.75;2.58;;;;;;;11.13;91.31;94882.91;5048816;28;20214;-74
2023/05/04 06:47:11;;;;;;;6.60;3.65;;;;;;;11.03;92.50;94888.69;5051795;28;20235;-76
2023/05/04 06:49:38;;;;;;;5.18;3.08;;;;;;;10.93;92.99;94881.66;5059202;28;20208;-76
2023/05/04 06:52:05;;;;;;;5.53;3.47;;;;;;;10.95;92.24;94875.94;5052218;28;20553;-75
2023/05/04 06:54:32;;;;;;;5.50;3.30;;;;;;;10.77;92.56;94888.75;5058719;28;20199;-75
2023/05/04 06:56:58;;;;;;;4.47;2.88;;;;;;;10.58;93.66;94888.28;5062270;28;20269;-75
2023/05/04 06:59:25;;;;;;;5.63;3.53;;;;;;;10.46;95.91;94891.66;5059239;28;20203;-76
2023/05/04 07:01:52;;;;;;;5.03;3.58;;;;;;;10.56;95.20;94885.91;5064336;28;20218;-75
2023/05/04 07:04:22;;;;;;;4.07;2.83;;;;;;;10.51;94.42;94886.09;5059165;28;20234;-75
2023/05/04 07:06:49;;;;;;;6.60;3.13;;;;;;;10.43;94.71;94881.44;5055197;28;20207;-75
2023/05/04 07:09:16;;;;;;;5.85;3.42;;;;;;;10.29;96.00;94883.53;5068395;28;20206;-74
2023/05/04 07:11:43;;;;;;;4.90;2.58;;;;;;;10.26;96.79;94893.06;5050264;28;20677;-75
2023/05/04 07:14:10;;;;;;;7.57;3.80;;;;;;;10.20;97.54;94883.53;5059791;28;20231;-75
2023/05/04 07:16:37;;;;;;;8.25;4.30;;;;;;;10.23;97.74;94882.13;5055109;28;21089;-75
2023/05/04 07:19:04;;;;;;;6.47;3.42;;;;;;;10.14;98.00;94884.78;5056389;28;20262;-76
2023/05/04 07:21:32;;;;;;;2.83;1.83;;;;;;;10.15;97.33;94880.16;5067526;28;20742;-74
2023/05/04 07:23:59;;;;;;;9.88;3.83;;;;;;;10.21;98.62;94878.94;5055373;28;20207;-77
2023/05/04 07:26:26;;;;;;;7.43;3.45;;;;;;;10.34;97.15;94888.78;5067268;28;20234;-78
2023/05/04 07:28:53;;;;;;;6.78;3.92;;;;;;;10.44;96.93;94882.25;5055125;28;20214;-76
2023/05/04 07:31:20;;;;;;;7.40;3.47;;;;;;;10.45;96.37;94894.69;5053837;28;20199;-76
2023/05/04 07:33:47;;;;;;;5.93;4.15;;;;;;;10.26;94.99;94892.28;5055019;28;20243;-75
2023/05/04 07:36:14;;;;;;;7.80;4.65;;;;;;;10.20;94.95;94893.56;5061334;28;20607;-76
2023/05/04 07:38:42;;;;;;;7.90;4.60;;;;;;;10.22;95.81;94885.94;5061097;28;20206;-75
2023/05/04 07:41:09;;;;;;;9.75;5.13;;;;;;;10.25;97.16;94896.13;5053978;28;20210;-75
2023/05/04 07:43:35;;;;;;;5.40;3.40;;;;;;;10.18;97.19;94895.78;5041059;28;20282;-75
2023/05/04 07:46:03;;;;;;;8.02;5.13;;;;;;;10.01;98.50;94901.16;5041261;28;20206;-74
2023/05/04 07:48:30;;;;;;;6.50;4.35;;;;;;;9.88;97.87;94887.47;5053540;28;20987;-75
2023/05/04 07:50:57;;;;;;;6.30;3.65;;;;;;;9.84;98.96;94897.31;5047814;28;20203;-75
2023/05/04 07:53:25;;;;;;;7.13;4.30;;;;;;;9.86;99.71;94900.50;5047462;28;20239;-74
2023/05/04 07:55:56;;;;;;;8.70;5.35;;;;;;;9.87;100.00;94904.81;5055725;28;20278;-75
2023/05/04 07:58:23;;;;;;;7.13;4.47;;;;;;;9.90;100.00;94906.88;5051227;28;20196;-75
2023/05/04 08:00:49;;;;;;;6.50;3.13;;;;;;;10.04;100.00;94912.16;5056091;28;20207;-76
2023/05/04 08:03:16;;;;;;;9.77;4.88;;;;;;;9.97;99.50;94912.63;5042475;28;20719;-75
2023/05/04 08:05:43;;;;;;;9.82;5.57;;;;;;;10.05;99.79;94912.97;5038648;28;20719;-76
2023/05/04 08:08:10;;;;;;;9.63;4.93;;;;;;;9.93;99.26;94911.66;5040945;28;20250;-74
2023/05/04 08:10:37;;;;;;;11.23;5.53;;;;;;;10.01;100.00;94920.91;5027667;28;20593;-74
2023/05/04 08:13:06;;;;;;;7.60;4.05;;;;;;;10.01;99.98;94925.53;5041251;28;20574;-74
2023/05/04 08:15:33;;;;;;;8.88;4.97;;;;;;;10.09;99.18;94924.75;5037387;28;20204;-75
2023/05/04 08:18:00;;;;;;;9.23;5.20;;;;;;;10.29;100.00;94924.16;5033834;28;20232;-74
2023/05/04 08:20:27;;;;;;;8.15;4.93;;;;;;;10.33;99.27;94925.91;5047083;28;20204;-74
2023/05/04 08:22:53;;;;;;;12.82;6.30;;;;;;;10.50;98.83;94919.69;5044703;28;20212;-74
2023/05/04 08:25:22;;;;;;;10.40;5.60;;;;;;;10.47;98.02;94914.91;5036448;28;20215;-75
2023/05/04 08:27:49;;;;;;;12.73;5.25;;;;;;;10.33;98.17;94919.69;5030686;28;20690;-76
2023/05/04 08:30:18;;;;;;;9.38;5.72;;;;;;;10.44;98.30;94920.16;5027236;28;20208;-75
2023/05/04 08:32:45;;;;;;;10.63;5.68;;;;;;;10.38;98.13;94908.72;5040496;28;20231;-76
2023/05/04 08:35:13;;;;;;;6.55;4.15;;;;;;;10.48;97.95;94913.81;5032455;28;20713;-76
2023/05/04 08:37:40;;;;;;;17.17;6.70;;;;;;;10.62;97.55;94919.03;5044955;28;20261;-75
2023/05/04 08:40:09;;;;;;;14.05;6.90;;;;;;;10.62;96.69;94914.44;5037027;28;20200;-75
2023/05/04 08:42:36;;;;;;;12.70;6.10;;;;;;;10.61;95.67;94914.75;5032447;28;20254;-75
2023/05/04 08:45:03;;;;;;;8.10;5.88;;;;;;;10.73;95.46;94912.19;5045196;28;20211;-75
2023/05/04 08:47:32;;;;;;;8.45;5.18;;;;;;;10.83;94.08;94921.88;5035188;28;20204;-76
2023/05/04 08:49:59;;;;;;;13.90;6.75;;;;;;;11.03;93.91;94921.22;5045671;28;20548;-75
2023/05/04 08:52:28;;;;;;;9.88;5.35;;;;;;;11.18;92.13;94911.75;5026929;28;20207;-75
2023/05/04 08:54:56;;;;;;;12.82;6.60;;;;;;;11.51;90.79;94906.50;5040198;28;20250;-75
2023/05/04 08:57:24;;;;;;;13.95;6.18;;;;;;;11.98;87.63;94902.63;5046288;28;20219;-76
2023/05/04 08:59:52;;;;;;;8.23;4.68;;;;;;;12.31;85.28;94901.91;5033258;28;20204;-74
2023/05/04 09:02:21;;;;;;;17.63;8.20;;;;;;;12.51;84.19;94898.38;5036419;28;20285;-74
2023/05/04 09:04:49;;;;;;;9.30;5.07;;;;;;;12.74;81.27;94907.75;5054598;28;20286;-74
2023/05/04 09:07:17;;;;;;;9.93;4.70;;;;;;;12.64;82.17;94902.75;5064556;28;20204;-74
2023/05/04 09:09:45;;;;;;;12.93;5.88;;;;;;;12.51;81.79;94903.81;5056692;28;20201;-74
2023/05/04 09:12:12;;;;;;;9.45;4.20;;;;;;;12.17;82.84;94915.72;5062014;28;20203;-74
2023/05/04 09:14:40;;;;;;;10.98;5.07;;;;;;;11.67;84.56;94923.84;5059673;28;20339;-75
2023/05/04 09:17:13;;;;;;;8.75;5.05;;;;;;;11.75;85.50;94917.59;5063559;28;20577;-73
2023/05/04 09:19:42;;;;;;;10.55;5.50;;;;;;;12.16;85.56;94908.75;5066068;28;20210;-74
2023/05/04 09:22:20;;;;;;;8.93;5.63;;;;;;;12.43;82.43;94907.41;5064035;28;20210;-74
2023/05/04 09:24:47;;;;;;;12.15;6.28;;;;;;;12.49;82.82;94916.94;5059207;28;20203;-75
2023/05/04 09:27:16;;;;;;;8.65;5.10;;;;;;;12.27;83.28;94914.56;5059014;28;20565;-75
2023/05/04 09:29:43;;;;;;;10.55;5.18;;;;;;;12.46;83.69;94912.97;5065968;28;20204;-75
2023/05/04 09:32:13;;;;;;;9.98;5.38;;;;;;;12.39;83.07;94911.91;5065593;28;20214;-74
2023/05/04 09:34:50;;;;;;;14.02;4.90;;;;;;;12.21;82.44;94915.88;5046619;28;20701;-74
2023/05/04 09:37:17;;;;;;;9.32;6.20;;;;;;;11.88;83.52;94913.88;5059777;28;20283;-74
2023/05/04 09:39:55;;;;;;;12.77;7.80;;;;;;;11.78;85.40;94914.22;5064775;28;20231;-73
2023/05/04 09:42:23;;;;;;;12.25;7.72;;;;;;;11.87;84.65;94917.69;5066710;28;20203;-75
2023/05/04 09:45:03;;;;;;;12.70;6.82;;;;;;;11.77;85.76;94907.19;5062467;28;20642;-74
2023/05/04 09:47:38;;;;;;;10.27;6.75;;;;;;;12.05;85.05;94902.88;5055605;28;20230;-74
2023/05/04 09:50:15;;;;;;;9.20;5.00;;;;;;;12.05;84.40;94892.03;5056579;28;20257;-74
2023/05/04 09:52:43;;;;;;;12.27;6.28;;;;;;;12.37;84.67;94897.88;5052384;28;20195;-73
2023/05/04 09:55:13;;;;;;;13.20;6.70;;;;;;;12.37;83.83;94897.88;5051649;28;20301;-75
2023/05/04 09:57:41;;;;;;;11.13;6.03;;;;;;;12.31;84.91;94897.25;5059670;28;20203;-75
2023/05/04 10:00:11;;;;;;;10.98;6.45;;;;;;;12.45;84.62;94895.06;5062807;28;20235;-74
2023/05/04 10:02:38;;;;;;;18.27;7.57;;;;;;;12.28;85.06;94899.88;5059368;28;20227;-75
2023/05/04 10:05:08;;;;;;;13.93;6.68;;;;;;;12.37;85.22;94892.44;5055885;28;20268;-74
2023/05/04 10:07:39;;;;;;;8.57;4.68;;;;;;;12.28;85.36;94889.78;5057737;28;20207;-75
2023/05/04 10:10:07;;;;;;;14.20;6.47;;;;;;;12.32;85.03;94885.25;5064436;28;20571;-76
2023/05/04 10:12:37;;;;;;;26.25;7.60;;;;;;;12.49;84.69;94889.78;5056616;28;20211;-74
2023/05/04 10:15:07;;;;;;;16.42;7.53;;;;;;;12.78;83.36;94891.59;5062345;28;20227;-75
2023/05/04 10:17:51;;;;;;;11.43;6.32;;;;;;;12.53;83.08;94885.25;5061225;28;20219;-74
2023/05/04 10:20:33;;;;;;;10.18;5.68;;;;;;;12.65;83.16;94882.59;5045950;28;20298;-76
2023/05/04 10:23:32;;;;;;;18.13;7.20;;;;;;;12.77;82.27;94885.34;5055736;28;20207;-75
2023/05/04 10:26:23;;;;;;;13.27;6.80;;;;;;;13.16;80.33;94875.84;5055970;28;20213;-75
2023/05/04 10:29:07;;;;;;;15.07;7.18;;;;;;;13.46;79.06;94881.91;5057226;28;20282;-74
2023/05/04 10:31:39;;;;;;;11.30;5.90;;;;;;;13.38;79.09;94877.38;5044725;28;20207;-74
2023/05/04 10:34:06;;;;;;;10.15;6.47;;;;;;;13.37;79.62;94874.97;5055246;28;20231;-75
2023/05/04 10:36:37;;;;;;;12.10;5.78;;;;;;;14.08;76.56;94869.81;5059966;28;20235;-75
2023/05/04 10:39:05;;;;;;;11.10;6.38;;;;;;;14.42;75.09;94875.91;5062559;28;20693;-75
2023/05/04 10:41:32;;;;;;;10.70;5.78;;;;;;;14.65;72.98;94870.72;5058466;28;20234;-74
2023/05/04 10:44:08;;;;;;;10.02;6.20;;;;;;;15.03;72.70;94876.47;5055290;28;20211;-74
2023/05/04 10:46:36;;;;;;;12.20;6.97;;;;;;;15.28;72.30;94872.44;5057676;28;20207;-76
2023/05/04 10:49:15;;;;;;;10.18;8.02;;;;;;;15.26;71.33;94876.66;5061764;28;20204;-75
2023/05/04 10:51:41;;;;;;;12.20;8.60;;;;;;;15.42;71.95;94868.50;5048635;28;20268;-75
2023/05/04 10:54:18;;;;;;;12.70;9.63;;;;;;;15.52;70.75;94874.19;5048417;28;20243;-74
2023/05/04 10:56:44;;;;;;;14.07;10.18;;;;;;;15.36;71.16;94865.22;5061367;28;20324;-74
2023/05/04 10:59:13;;;;;;;14.48;8.50;;;;;;;15.12;71.84;94870.84;5039285;28;20273;-74
2023/05/04 11:01:44;;;;;;;19.58;10.38;;;;;;;14.76;72.17;94869.09;5057001;28;20238;-73
2023/05/04 11:04:19;;;;;;;15.73;9.88;;;;;;;14.13;74.80;94875.03;5057361;28;20777;-75
2023/05/04 11:06:56;;;;;;;14.35;9.55;;;;;;;14.50;73.93;94864.06;5054884;28;20335;-74
2023/05/04 11:09:27;;;;;;;17.17;10.52;;;;;;;14.47;73.70;94865.56;5055170;28;20204;-75
2023/05/04 11:11:54;;;;;;;17.55;9.88;;;;;;;14.57;74.32;94873.25;5040772;28;20209;-75
2023/05/04 11:14:27;;;;;;;16.63;11.20;;;;;;;14.50;74.38;94869.50;5054806;28;20666;-74
2023/05/04 11:17:20;;;;;;;21.73;11.50;;;;;;;13.92;76.60;94871.69;5049300;28;20718;-75
2023/05/04 11:19:50;;;;;;;17.88;11.15;;;;;;;13.81;75.76;94878.72;5059639;28;20298;-75
2023/05/04 11:22:19;;;;;;;16.80;10.55;;;;;;;13.40;77.15;94874.28;5049393;28;20291;-75
2023/05/04 11:24:47;;;;;;;17.08;10.30;;;;;;;13.40;77.07;94880.53;5061104;28;20199;-75
2023/05/04 11:27:24;;;;;;;17.08;10.77;;;;;;;13.37;77.51;94880.44;5048803;28;20196;-74
2023/05/04 11:29:59;;;;;;;14.60;10.43;;;;;;;13.27;77.94;94880.84;5047827;28;20214;-75
2023/05/04 11:32:34;;;;;;;16.08;11.15;;;;;;;13.03;78.97;94882.38;5043885;28;20769;-75
2023/05/04 11:35:07;;;;;;;17.45;10.52;;;;;;;13.03;79.56;94885.09;5046051;28;20309;-75